sensor_id;sensor_type;location;lat;lon;timestamp;temperature;humidity
25102;DHT22;13087;51.472;5.464;2022-08-03T00:00:32;28.50;44.20
25102;DHT22;13087;51.472;5.464;2022-08-03T00:02:57;28.50;44.30
25102;DHT22;13087;51.472;5.464;2022-08-03T00:05:23;28.50;44.30
25102;DHT22;13087;51.472;5.464;2022-08-03T00:07:48;28.50;44.40
25102;DHT22;13087;51.472;5.464;2022-08-03T00:10:14;28.50;44.40
25102;DHT22;13087;51.472;5.464;2022-08-03T00:12:39;28.40;44.40
25102;DHT22;13087;51.472;5.464;2022-08-03T00:15:05;28.40;44.50
25102;DHT22;13087;51.472;5.464;2022-08-03T00:17:30;28.40;44.60
25102;DHT22;13087;51.472;5.464;2022-08-03T00:19:56;28.30;44.60
25102;DHT22;13087;51.472;5.464;2022-08-03T00:22:21;28.30;44.70
25102;DHT22;13087;51.472;5.464;2022-08-03T00:24:47;28.20;44.80
25102;DHT22;13087;51.472;5.464;2022-08-03T00:27:12;28.10;44.80
25102;DHT22;13087;51.472;5.464;2022-08-03T00:29:38;28.10;44.90
25102;DHT22;13087;51.472;5.464;2022-08-03T00:32:03;28.00;45.10
25102;DHT22;13087;51.472;5.464;2022-08-03T00:34:29;27.90;45.10
25102;DHT22;13087;51.472;5.464;2022-08-03T00:36:55;27.90;45.00
25102;DHT22;13087;51.472;5.464;2022-08-03T00:39:21;27.90;45.00
25102;DHT22;13087;51.472;5.464;2022-08-03T00:41:46;27.90;45.30
25102;DHT22;13087;51.472;5.464;2022-08-03T00:44:13;27.80;45.30
25102;DHT22;13087;51.472;5.464;2022-08-03T00:46:38;27.70;45.80
25102;DHT22;13087;51.472;5.464;2022-08-03T00:49:03;27.50;46.20
25102;DHT22;13087;51.472;5.464;2022-08-03T00:51:29;27.40;46.40
25102;DHT22;13087;51.472;5.464;2022-08-03T00:53:54;27.30;46.80
25102;DHT22;13087;51.472;5.464;2022-08-03T00:56:20;27.30;46.60
25102;DHT22;13087;51.472;5.464;2022-08-03T00:58:45;27.30;46.60
25102;DHT22;13087;51.472;5.464;2022-08-03T01:01:11;27.30;46.90
25102;DHT22;13087;51.472;5.464;2022-08-03T01:03:36;27.20;46.80
25102;DHT22;13087;51.472;5.464;2022-08-03T01:08:35;27.00;47.10
25102;DHT22;13087;51.472;5.464;2022-08-03T01:11:07;27.10;47.20
25102;DHT22;13087;51.472;5.464;2022-08-03T01:13:40;27.10;47.20
25102;DHT22;13087;51.472;5.464;2022-08-03T01:18:41;27.10;47.20
25102;DHT22;13087;51.472;5.464;2022-08-03T01:21:09;27.10;47.00
25102;DHT22;13087;51.472;5.464;2022-08-03T01:23:44;27.10;47.10
25102;DHT22;13087;51.472;5.464;2022-08-03T01:26:22;27.10;47.00
25102;DHT22;13087;51.472;5.464;2022-08-03T01:31:21;27.00;47.30
25102;DHT22;13087;51.472;5.464;2022-08-03T01:33:50;26.90;47.60
25102;DHT22;13087;51.472;5.464;2022-08-03T01:36:18;26.90;47.60
25102;DHT22;13087;51.472;5.464;2022-08-03T01:38:48;26.80;47.80
25102;DHT22;13087;51.472;5.464;2022-08-03T01:41:19;26.80;48.20
25102;DHT22;13087;51.472;5.464;2022-08-03T01:43:45;26.70;48.60
25102;DHT22;13087;51.472;5.464;2022-08-03T01:46:13;26.60;49.10
25102;DHT22;13087;51.472;5.464;2022-08-03T01:48:40;26.50;49.60
25102;DHT22;13087;51.472;5.464;2022-08-03T01:51:06;26.40;49.60
25102;DHT22;13087;51.472;5.464;2022-08-03T01:53:33;26.30;50.10
25102;DHT22;13087;51.472;5.464;2022-08-03T01:55:59;26.30;50.30
25102;DHT22;13087;51.472;5.464;2022-08-03T01:58:26;26.20;50.50
25102;DHT22;13087;51.472;5.464;2022-08-03T02:00:53;26.20;50.60
25102;DHT22;13087;51.472;5.464;2022-08-03T02:03:25;26.10;50.30
25102;DHT22;13087;51.472;5.464;2022-08-03T02:05:51;26.20;50.20
25102;DHT22;13087;51.472;5.464;2022-08-03T02:08:16;26.20;50.20
25102;DHT22;13087;51.472;5.464;2022-08-03T02:10:42;26.10;50.20
25102;DHT22;13087;51.472;5.464;2022-08-03T02:13:10;26.20;50.20
25102;DHT22;13087;51.472;5.464;2022-08-03T02:15:37;26.10;50.70
25102;DHT22;13087;51.472;5.464;2022-08-03T02:18:04;26.10;50.70
25102;DHT22;13087;51.472;5.464;2022-08-03T02:20:30;26.00;50.90
25102;DHT22;13087;51.472;5.464;2022-08-03T02:22:57;26.00;51.50
25102;DHT22;13087;51.472;5.464;2022-08-03T02:25:22;26.00;51.50
25102;DHT22;13087;51.472;5.464;2022-08-03T02:27:50;25.90;51.90
25102;DHT22;13087;51.472;5.464;2022-08-03T02:30:17;25.90;52.10
25102;DHT22;13087;51.472;5.464;2022-08-03T02:32:45;25.80;52.60
25102;DHT22;13087;51.472;5.464;2022-08-03T02:35:12;25.80;53.10
25102;DHT22;13087;51.472;5.464;2022-08-03T02:37:44;25.70;53.60
25102;DHT22;13087;51.472;5.464;2022-08-03T02:40:11;25.60;54.40
25102;DHT22;13087;51.472;5.464;2022-08-03T02:42:37;25.50;54.50
25102;DHT22;13087;51.472;5.464;2022-08-03T02:45:04;25.50;54.20
25102;DHT22;13087;51.472;5.464;2022-08-03T02:47:30;25.50;54.70
25102;DHT22;13087;51.472;5.464;2022-08-03T02:49:57;25.40;54.40
25102;DHT22;13087;51.472;5.464;2022-08-03T02:52:24;25.40;54.90
25102;DHT22;13087;51.472;5.464;2022-08-03T02:54:52;25.40;54.70
25102;DHT22;13087;51.472;5.464;2022-08-03T02:57:19;25.40;54.90
25102;DHT22;13087;51.472;5.464;2022-08-03T02:59:45;25.30;54.90
25102;DHT22;13087;51.472;5.464;2022-08-03T03:02:11;25.30;55.30
25102;DHT22;13087;51.472;5.464;2022-08-03T03:04:38;25.30;55.20
25102;DHT22;13087;51.472;5.464;2022-08-03T03:36:15;25.30;55.20
25102;DHT22;13087;51.472;5.464;2022-08-03T03:38:42;25.00;55.50
25102;DHT22;13087;51.472;5.464;2022-08-03T03:41:08;25.00;55.20
25102;DHT22;13087;51.472;5.464;2022-08-03T03:43:33;25.00;55.20
25102;DHT22;13087;51.472;5.464;2022-08-03T03:45:59;24.90;55.20
25102;DHT22;13087;51.472;5.464;2022-08-03T03:48:25;24.90;55.80
25102;DHT22;13087;51.472;5.464;2022-08-03T03:53:16;24.90;54.90
25102;DHT22;13087;51.472;5.464;2022-08-03T03:55:42;24.90;55.50
25102;DHT22;13087;51.472;5.464;2022-08-03T03:58:07;24.80;55.30
25102;DHT22;13087;51.472;5.464;2022-08-03T04:00:33;24.80;55.10
25102;DHT22;13087;51.472;5.464;2022-08-03T04:02:59;24.80;55.30
25102;DHT22;13087;51.472;5.464;2022-08-03T04:05:24;24.80;55.50
25102;DHT22;13087;51.472;5.464;2022-08-03T04:08:13;24.70;55.70
25102;DHT22;13087;51.472;5.464;2022-08-03T04:13:48;24.70;55.70
25102;DHT22;13087;51.472;5.464;2022-08-03T04:16:15;24.80;55.70
25102;DHT22;13087;51.472;5.464;2022-08-03T04:18:42;24.80;55.40
25102;DHT22;13087;51.472;5.464;2022-08-03T04:21:09;24.80;55.50
25102;DHT22;13087;51.472;5.464;2022-08-03T04:23:36;24.70;55.70
25102;DHT22;13087;51.472;5.464;2022-08-03T04:26:03;24.70;55.60
25102;DHT22;13087;51.472;5.464;2022-08-03T04:28:29;24.70;55.70
25102;DHT22;13087;51.472;5.464;2022-08-03T04:30:56;24.70;55.50
25102;DHT22;13087;51.472;5.464;2022-08-03T04:33:21;24.70;55.40
25102;DHT22;13087;51.472;5.464;2022-08-03T04:35:50;24.70;55.80
25102;DHT22;13087;51.472;5.464;2022-08-03T04:38:17;24.70;55.80
25102;DHT22;13087;51.472;5.464;2022-08-03T04:40:43;24.80;55.80
25102;DHT22;13087;51.472;5.464;2022-08-03T04:43:10;24.80;55.70
25102;DHT22;13087;51.472;5.464;2022-08-03T04:45:37;24.90;55.60
25102;DHT22;13087;51.472;5.464;2022-08-03T04:48:03;24.90;55.40
25102;DHT22;13087;51.472;5.464;2022-08-03T04:50:28;25.00;55.40
25102;DHT22;13087;51.472;5.464;2022-08-03T04:52:54;25.00;55.40
25102;DHT22;13087;51.472;5.464;2022-08-03T04:55:26;25.00;55.50
25102;DHT22;13087;51.472;5.464;2022-08-03T04:57:52;25.00;55.50
25102;DHT22;13087;51.472;5.464;2022-08-03T05:00:17;25.00;55.40
25102;DHT22;13087;51.472;5.464;2022-08-03T05:02:43;25.10;55.30
25102;DHT22;13087;51.472;5.464;2022-08-03T05:05:09;25.10;55.10
25102;DHT22;13087;51.472;5.464;2022-08-03T05:07:36;25.20;55.60
25102;DHT22;13087;51.472;5.464;2022-08-03T05:10:02;25.30;54.80
25102;DHT22;13087;51.472;5.464;2022-08-03T05:12:27;25.30;54.80
25102;DHT22;13087;51.472;5.464;2022-08-03T05:14:53;25.30;55.30
25102;DHT22;13087;51.472;5.464;2022-08-03T05:17:20;25.30;54.80
25102;DHT22;13087;51.472;5.464;2022-08-03T05:19:45;25.30;54.70
25102;DHT22;13087;51.472;5.464;2022-08-03T05:22:10;25.30;54.90
25102;DHT22;13087;51.472;5.464;2022-08-03T05:24:36;25.30;55.10
25102;DHT22;13087;51.472;5.464;2022-08-03T05:27:01;25.20;55.10
25102;DHT22;13087;51.472;5.464;2022-08-03T05:29:27;25.20;55.00
25102;DHT22;13087;51.472;5.464;2022-08-03T05:31:52;25.30;55.10
25102;DHT22;13087;51.472;5.464;2022-08-03T05:34:18;25.30;55.00
25102;DHT22;13087;51.472;5.464;2022-08-03T05:36:43;25.30;55.70
25102;DHT22;13087;51.472;5.464;2022-08-03T05:39:08;25.30;55.20
25102;DHT22;13087;51.472;5.464;2022-08-03T05:41:34;25.30;55.20
25102;DHT22;13087;51.472;5.464;2022-08-03T05:43:59;25.30;55.30
25102;DHT22;13087;51.472;5.464;2022-08-03T05:46:26;25.30;55.30
25102;DHT22;13087;51.472;5.464;2022-08-03T05:48:52;25.30;55.40
25102;DHT22;13087;51.472;5.464;2022-08-03T05:51:18;25.30;55.30
25102;DHT22;13087;51.472;5.464;2022-08-03T05:53:43;25.40;55.30
25102;DHT22;13087;51.472;5.464;2022-08-03T05:56:11;25.40;55.30
25102;DHT22;13087;51.472;5.464;2022-08-03T05:58:37;25.40;55.30
25102;DHT22;13087;51.472;5.464;2022-08-03T06:01:03;25.40;55.20
25102;DHT22;13087;51.472;5.464;2022-08-03T06:03:28;25.50;55.20
25102;DHT22;13087;51.472;5.464;2022-08-03T06:05:54;25.50;55.10
25102;DHT22;13087;51.472;5.464;2022-08-03T06:08:22;25.50;55.00
25102;DHT22;13087;51.472;5.464;2022-08-03T06:10:48;25.60;54.80
25102;DHT22;13087;51.472;5.464;2022-08-03T06:13:14;25.70;54.80
25102;DHT22;13087;51.472;5.464;2022-08-03T06:15:40;25.70;54.60
25102;DHT22;13087;51.472;5.464;2022-08-03T06:18:06;25.80;54.50
25102;DHT22;13087;51.472;5.464;2022-08-03T06:20:32;25.90;54.40
25102;DHT22;13087;51.472;5.464;2022-08-03T06:22:58;25.90;54.30
25102;DHT22;13087;51.472;5.464;2022-08-03T06:25:24;26.00;54.20
25102;DHT22;13087;51.472;5.464;2022-08-03T06:27:50;26.00;54.20
25102;DHT22;13087;51.472;5.464;2022-08-03T06:30:16;26.10;54.10
25102;DHT22;13087;51.472;5.464;2022-08-03T06:32:41;26.10;54.20
25102;DHT22;13087;51.472;5.464;2022-08-03T06:35:07;26.00;54.50
25102;DHT22;13087;51.472;5.464;2022-08-03T06:37:49;25.90;54.60
25102;DHT22;13087;51.472;5.464;2022-08-03T06:40:17;25.90;54.80
25102;DHT22;13087;51.472;5.464;2022-08-03T06:42:43;25.90;54.90
25102;DHT22;13087;51.472;5.464;2022-08-03T06:45:09;25.90;54.70
25102;DHT22;13087;51.472;5.464;2022-08-03T06:47:35;26.00;54.80
25102;DHT22;13087;51.472;5.464;2022-08-03T06:50:01;26.00;54.60
25102;DHT22;13087;51.472;5.464;2022-08-03T06:54:53;26.00;54.50
25102;DHT22;13087;51.472;5.464;2022-08-03T06:57:18;26.10;54.40
25102;DHT22;13087;51.472;5.464;2022-08-03T06:59:44;26.10;54.50
25102;DHT22;13087;51.472;5.464;2022-08-03T07:02:09;26.20;54.70
25102;DHT22;13087;51.472;5.464;2022-08-03T07:04:35;26.20;54.40
25102;DHT22;13087;51.472;5.464;2022-08-03T07:07:01;26.30;54.30
25102;DHT22;13087;51.472;5.464;2022-08-03T07:09:27;26.40;54.30
25102;DHT22;13087;51.472;5.464;2022-08-03T07:11:52;26.40;54.20
25102;DHT22;13087;51.472;5.464;2022-08-03T07:14:18;26.50;54.10
25102;DHT22;13087;51.472;5.464;2022-08-03T07:16:44;26.60;53.90
25102;DHT22;13087;51.472;5.464;2022-08-03T07:19:09;26.60;53.80
25102;DHT22;13087;51.472;5.464;2022-08-03T07:21:35;26.60;53.70
25102;DHT22;13087;51.472;5.464;2022-08-03T07:24:00;26.70;53.60
25102;DHT22;13087;51.472;5.464;2022-08-03T07:26:26;26.70;53.50
25102;DHT22;13087;51.472;5.464;2022-08-03T07:28:51;26.70;53.50
25102;DHT22;13087;51.472;5.464;2022-08-03T07:31:17;26.80;54.10
25102;DHT22;13087;51.472;5.464;2022-08-03T07:33:42;26.80;53.40
25102;DHT22;13087;51.472;5.464;2022-08-03T07:36:09;26.70;53.50
25102;DHT22;13087;51.472;5.464;2022-08-03T07:38:35;26.70;53.60
25102;DHT22;13087;51.472;5.464;2022-08-03T07:41:01;26.80;53.60
25102;DHT22;13087;51.472;5.464;2022-08-03T07:43:27;26.80;53.60
25102;DHT22;13087;51.472;5.464;2022-08-03T07:45:52;26.90;53.50
25102;DHT22;13087;51.472;5.464;2022-08-03T07:48:18;26.90;53.40
25102;DHT22;13087;51.472;5.464;2022-08-03T07:50:43;26.90;53.40
25102;DHT22;13087;51.472;5.464;2022-08-03T07:53:09;26.90;53.40
25102;DHT22;13087;51.472;5.464;2022-08-03T07:55:34;26.90;53.30
25102;DHT22;13087;51.472;5.464;2022-08-03T07:58:01;26.90;53.30
25102;DHT22;13087;51.472;5.464;2022-08-03T08:00:26;27.00;53.20
25102;DHT22;13087;51.472;5.464;2022-08-03T08:02:52;26.90;53.20
25102;DHT22;13087;51.472;5.464;2022-08-03T08:05:18;26.90;53.30
25102;DHT22;13087;51.472;5.464;2022-08-03T08:07:43;26.90;53.20
25102;DHT22;13087;51.472;5.464;2022-08-03T08:10:09;26.90;53.20
25102;DHT22;13087;51.472;5.464;2022-08-03T08:12:35;27.00;53.10
25102;DHT22;13087;51.472;5.464;2022-08-03T08:15:01;27.00;52.90
25102;DHT22;13087;51.472;5.464;2022-08-03T08:17:26;27.00;52.90
25102;DHT22;13087;51.472;5.464;2022-08-03T08:19:52;27.10;52.90
25102;DHT22;13087;51.472;5.464;2022-08-03T08:22:21;27.10;52.70
25102;DHT22;13087;51.472;5.464;2022-08-03T08:24:49;27.10;52.70
25102;DHT22;13087;51.472;5.464;2022-08-03T08:27:15;27.20;52.60
25102;DHT22;13087;51.472;5.464;2022-08-03T08:29:40;27.30;52.60
25102;DHT22;13087;51.472;5.464;2022-08-03T08:32:06;27.30;52.50
25102;DHT22;13087;51.472;5.464;2022-08-03T08:34:31;27.40;52.30
25102;DHT22;13087;51.472;5.464;2022-08-03T08:36:57;27.40;52.30
25102;DHT22;13087;51.472;5.464;2022-08-03T08:39:23;27.50;52.20
25102;DHT22;13087;51.472;5.464;2022-08-03T08:41:51;27.50;52.20
25102;DHT22;13087;51.472;5.464;2022-08-03T08:44:16;27.60;52.20
25102;DHT22;13087;51.472;5.464;2022-08-03T08:46:42;27.70;52.10
25102;DHT22;13087;51.472;5.464;2022-08-03T08:49:08;27.70;51.90
25102;DHT22;13087;51.472;5.464;2022-08-03T08:51:33;27.80;51.70
25102;DHT22;13087;51.472;5.464;2022-08-03T08:54:02;27.70;51.60
25102;DHT22;13087;51.472;5.464;2022-08-03T08:56:28;27.70;51.60
25102;DHT22;13087;51.472;5.464;2022-08-03T08:58:57;27.80;51.70
25102;DHT22;13087;51.472;5.464;2022-08-03T09:01:22;27.90;51.60
25102;DHT22;13087;51.472;5.464;2022-08-03T09:03:48;28.00;51.60
25102;DHT22;13087;51.472;5.464;2022-08-03T09:06:14;28.10;51.40
25102;DHT22;13087;51.472;5.464;2022-08-03T09:08:40;28.20;51.20
25102;DHT22;13087;51.472;5.464;2022-08-03T09:11:05;28.20;51.00
25102;DHT22;13087;51.472;5.464;2022-08-03T09:13:32;28.20;50.90
25102;DHT22;13087;51.472;5.464;2022-08-03T09:16:11;28.40;50.90
25102;DHT22;13087;51.472;5.464;2022-08-03T09:18:37;28.40;50.70
25102;DHT22;13087;51.472;5.464;2022-08-03T09:23:53;28.60;50.50
25102;DHT22;13087;51.472;5.464;2022-08-03T09:26:26;28.70;50.10
25102;DHT22;13087;51.472;5.464;2022-08-03T09:31:28;28.80;49.90
25102;DHT22;13087;51.472;5.464;2022-08-03T09:33:53;28.80;49.80
25102;DHT22;13087;51.472;5.464;2022-08-03T09:36:33;28.90;49.70
25102;DHT22;13087;51.472;5.464;2022-08-03T09:41:26;29.00;49.80
25102;DHT22;13087;51.472;5.464;2022-08-03T09:43:52;29.20;49.30
25102;DHT22;13087;51.472;5.464;2022-08-03T09:46:21;29.20;49.10
25102;DHT22;13087;51.472;5.464;2022-08-03T09:48:46;29.20;49.10
25102;DHT22;13087;51.472;5.464;2022-08-03T09:51:12;29.30;49.00
25102;DHT22;13087;51.472;5.464;2022-08-03T09:53:42;29.40;49.00
25102;DHT22;13087;51.472;5.464;2022-08-03T09:56:08;29.50;48.90
25102;DHT22;13087;51.472;5.464;2022-08-03T09:58:38;29.60;48.70
25102;DHT22;13087;51.472;5.464;2022-08-03T10:01:08;29.70;48.50
25102;DHT22;13087;51.472;5.464;2022-08-03T10:03:37;29.70;48.00
25102;DHT22;13087;51.472;5.464;2022-08-03T10:06:13;29.80;47.30
25102;DHT22;13087;51.472;5.464;2022-08-03T10:08:40;29.80;47.30
25102;DHT22;13087;51.472;5.464;2022-08-03T10:11:05;29.80;47.80
25102;DHT22;13087;51.472;5.464;2022-08-03T10:13:31;29.80;46.40
25102;DHT22;13087;51.472;5.464;2022-08-03T10:15:56;29.90;46.50
25102;DHT22;13087;51.472;5.464;2022-08-03T10:20:49;30.00;46.50
25102;DHT22;13087;51.472;5.464;2022-08-03T10:23:16;30.20;46.50
25102;DHT22;13087;51.472;5.464;2022-08-03T10:30:33;30.20;46.40
25102;DHT22;13087;51.472;5.464;2022-08-03T10:33:01;30.50;46.00
25102;DHT22;13087;51.472;5.464;2022-08-03T10:35:27;30.50;45.90
25102;DHT22;13087;51.472;5.464;2022-08-03T10:38:01;30.60;45.40
25102;DHT22;13087;51.472;5.464;2022-08-03T10:40:28;30.70;45.40
25102;DHT22;13087;51.472;5.464;2022-08-03T10:42:55;30.80;44.90
25102;DHT22;13087;51.472;5.464;2022-08-03T10:45:24;30.90;45.00
25102;DHT22;13087;51.472;5.464;2022-08-03T10:47:50;31.00;45.00
25102;DHT22;13087;51.472;5.464;2022-08-03T10:50:16;31.10;44.50
25102;DHT22;13087;51.472;5.464;2022-08-03T10:53:04;31.10;44.30
25102;DHT22;13087;51.472;5.464;2022-08-03T10:58:14;31.20;43.30
25102;DHT22;13087;51.472;5.464;2022-08-03T11:00:48;31.20;43.30
25102;DHT22;13087;51.472;5.464;2022-08-03T11:03:15;31.30;43.60
25102;DHT22;13087;51.472;5.464;2022-08-03T11:05:49;31.40;43.60
25102;DHT22;13087;51.472;5.464;2022-08-03T11:08:30;31.50;43.60
25102;DHT22;13087;51.472;5.464;2022-08-03T11:10:57;31.70;43.60
25102;DHT22;13087;51.472;5.464;2022-08-03T11:13:24;31.90;43.40
25102;DHT22;13087;51.472;5.464;2022-08-03T11:15:57;32.00;43.10
25102;DHT22;13087;51.472;5.464;2022-08-03T11:18:26;31.90;43.00
25102;DHT22;13087;51.472;5.464;2022-08-03T11:20:52;32.00;43.10
25102;DHT22;13087;51.472;5.464;2022-08-03T11:23:40;32.10;42.90
25102;DHT22;13087;51.472;5.464;2022-08-03T11:26:11;32.20;43.10
25102;DHT22;13087;51.472;5.464;2022-08-03T11:28:37;32.40;43.10
25102;DHT22;13087;51.472;5.464;2022-08-03T11:34:04;32.50;42.10
25102;DHT22;13087;51.472;5.464;2022-08-03T11:36:50;32.50;42.20
25102;DHT22;13087;51.472;5.464;2022-08-03T11:39:16;32.60;42.40
25102;DHT22;13087;51.472;5.464;2022-08-03T11:41:41;32.80;42.50
25102;DHT22;13087;51.472;5.464;2022-08-03T11:44:07;32.90;42.20
25102;DHT22;13087;51.472;5.464;2022-08-03T11:46:36;33.00;41.80
25102;DHT22;13087;51.472;5.464;2022-08-03T11:49:05;33.00;41.80
25102;DHT22;13087;51.472;5.464;2022-08-03T11:51:31;33.10;41.70
25102;DHT22;13087;51.472;5.464;2022-08-03T11:53:58;33.10;41.20
25102;DHT22;13087;51.472;5.464;2022-08-03T11:56:24;33.10;41.50
25102;DHT22;13087;51.472;5.464;2022-08-03T11:58:50;33.30;41.50
25102;DHT22;13087;51.472;5.464;2022-08-03T12:01:18;33.40;41.30
25102;DHT22;13087;51.472;5.464;2022-08-03T12:03:43;33.50;41.10
25102;DHT22;13087;51.472;5.464;2022-08-03T12:06:10;33.60;41.00
25102;DHT22;13087;51.472;5.464;2022-08-03T12:08:36;33.70;41.00
25102;DHT22;13087;51.472;5.464;2022-08-03T12:11:02;33.80;41.00
25102;DHT22;13087;51.472;5.464;2022-08-03T12:14:02;33.90;41.00
25102;DHT22;13087;51.472;5.464;2022-08-03T12:16:22;34.10;40.90
25102;DHT22;13087;51.472;5.464;2022-08-03T12:19:01;34.10;40.70
25102;DHT22;13087;51.472;5.464;2022-08-03T12:21:27;34.20;40.50
25102;DHT22;13087;51.472;5.464;2022-08-03T12:23:56;34.30;40.20
25102;DHT22;13087;51.472;5.464;2022-08-03T12:26:24;34.40;40.20
25102;DHT22;13087;51.472;5.464;2022-08-03T12:28:50;34.50;40.30
25102;DHT22;13087;51.472;5.464;2022-08-03T12:31:15;34.60;39.80
25102;DHT22;13087;51.472;5.464;2022-08-03T12:34:00;34.70;39.60
25102;DHT22;13087;51.472;5.464;2022-08-03T12:36:30;34.70;39.50
25102;DHT22;13087;51.472;5.464;2022-08-03T12:38:57;34.70;39.30
25102;DHT22;13087;51.472;5.464;2022-08-03T12:41:29;34.70;39.30
25102;DHT22;13087;51.472;5.464;2022-08-03T12:43:55;34.90;39.50
25102;DHT22;13087;51.472;5.464;2022-08-03T12:46:21;35.10;39.30
25102;DHT22;13087;51.472;5.464;2022-08-03T12:49:06;35.30;39.00
25102;DHT22;13087;51.472;5.464;2022-08-03T12:54:16;35.70;38.70
25102;DHT22;13087;51.472;5.464;2022-08-03T12:57:01;35.70;38.80
25102;DHT22;13087;51.472;5.464;2022-08-03T12:59:30;35.80;38.70
25102;DHT22;13087;51.472;5.464;2022-08-03T13:01:56;35.90;38.60
25102;DHT22;13087;51.472;5.464;2022-08-03T13:04:25;36.00;38.30
25102;DHT22;13087;51.472;5.464;2022-08-03T13:07:03;36.00;37.90
25102;DHT22;13087;51.472;5.464;2022-08-03T13:09:28;36.10;38.10
25102;DHT22;13087;51.472;5.464;2022-08-03T13:12:09;36.30;37.70
25102;DHT22;13087;51.472;5.464;2022-08-03T13:14:35;36.20;37.40
25102;DHT22;13087;51.472;5.464;2022-08-03T13:17:00;36.10;37.60
25102;DHT22;13087;51.472;5.464;2022-08-03T13:19:26;36.20;37.40
25102;DHT22;13087;51.472;5.464;2022-08-03T13:21:51;36.30;37.10
25102;DHT22;13087;51.472;5.464;2022-08-03T13:24:17;36.40;37.00
25102;DHT22;13087;51.472;5.464;2022-08-03T13:26:43;36.40;36.90
25102;DHT22;13087;51.472;5.464;2022-08-03T13:29:09;36.40;36.80
25102;DHT22;13087;51.472;5.464;2022-08-03T13:31:34;36.40;36.80
25102;DHT22;13087;51.472;5.464;2022-08-03T13:34:00;36.50;36.80
25102;DHT22;13087;51.472;5.464;2022-08-03T13:36:25;36.60;36.50
25102;DHT22;13087;51.472;5.464;2022-08-03T13:38:51;36.80;36.50
25102;DHT22;13087;51.472;5.464;2022-08-03T13:41:17;36.90;36.30
25102;DHT22;13087;51.472;5.464;2022-08-03T13:43:42;37.10;36.20
25102;DHT22;13087;51.472;5.464;2022-08-03T13:46:08;37.40;36.10
25102;DHT22;13087;51.472;5.464;2022-08-03T13:48:33;37.80;35.90
25102;DHT22;13087;51.472;5.464;2022-08-03T13:50:59;38.10;35.40
25102;DHT22;13087;51.472;5.464;2022-08-03T13:53:24;38.30;35.10
25102;DHT22;13087;51.472;5.464;2022-08-03T13:55:50;38.50;34.60
25102;DHT22;13087;51.472;5.464;2022-08-03T13:58:15;38.50;34.20
25102;DHT22;13087;51.472;5.464;2022-08-03T14:00:41;38.50;34.30
25102;DHT22;13087;51.472;5.464;2022-08-03T14:03:06;38.60;34.40
25102;DHT22;13087;51.472;5.464;2022-08-03T14:05:32;38.70;34.30
25102;DHT22;13087;51.472;5.464;2022-08-03T14:07:57;38.50;33.70
25102;DHT22;13087;51.472;5.464;2022-08-03T14:10:25;38.30;33.60
25102;DHT22;13087;51.472;5.464;2022-08-03T14:12:50;38.10;33.90
25102;DHT22;13087;51.472;5.464;2022-08-03T14:15:16;38.00;34.30
25102;DHT22;13087;51.472;5.464;2022-08-03T14:17:41;38.10;34.40
25102;DHT22;13087;51.472;5.464;2022-08-03T14:20:07;38.10;33.90
25102;DHT22;13087;51.472;5.464;2022-08-03T14:22:33;38.00;33.90
25102;DHT22;13087;51.472;5.464;2022-08-03T14:24:58;37.80;34.20
25102;DHT22;13087;51.472;5.464;2022-08-03T14:27:24;37.60;34.50
25102;DHT22;13087;51.472;5.464;2022-08-03T14:29:49;37.60;34.40
25102;DHT22;13087;51.472;5.464;2022-08-03T14:32:15;37.80;34.50
25102;DHT22;13087;51.472;5.464;2022-08-03T14:34:40;38.10;34.20
25102;DHT22;13087;51.472;5.464;2022-08-03T14:37:06;38.40;33.80
25102;DHT22;13087;51.472;5.464;2022-08-03T14:39:31;38.80;33.80
25102;DHT22;13087;51.472;5.464;2022-08-03T14:41:57;39.10;33.60
25102;DHT22;13087;51.472;5.464;2022-08-03T14:44:22;39.30;33.10
25102;DHT22;13087;51.472;5.464;2022-08-03T14:46:48;39.40;32.80
25102;DHT22;13087;51.472;5.464;2022-08-03T14:49:13;39.40;32.80
25102;DHT22;13087;51.472;5.464;2022-08-03T14:51:39;39.40;33.60
25102;DHT22;13087;51.472;5.464;2022-08-03T14:54:04;39.50;33.00
25102;DHT22;13087;51.472;5.464;2022-08-03T14:56:30;39.50;32.60
25102;DHT22;13087;51.472;5.464;2022-08-03T14:58:55;39.20;32.40
25102;DHT22;13087;51.472;5.464;2022-08-03T15:01:21;39.00;32.60
25102;DHT22;13087;51.472;5.464;2022-08-03T15:03:46;38.90;33.10
25102;DHT22;13087;51.472;5.464;2022-08-03T15:06:12;38.90;32.40
25102;DHT22;13087;51.472;5.464;2022-08-03T15:08:38;38.80;32.80
25102;DHT22;13087;51.472;5.464;2022-08-03T15:11:04;38.90;32.90
25102;DHT22;13087;51.472;5.464;2022-08-03T15:13:29;39.10;32.70
25102;DHT22;13087;51.472;5.464;2022-08-03T15:16:04;39.20;32.10
25102;DHT22;13087;51.472;5.464;2022-08-03T15:18:30;39.20;32.00
25102;DHT22;13087;51.472;5.464;2022-08-03T15:20:55;39.40;32.10
25102;DHT22;13087;51.472;5.464;2022-08-03T15:23:21;39.40;31.60
25102;DHT22;13087;51.472;5.464;2022-08-03T15:25:46;39.20;31.60
25102;DHT22;13087;51.472;5.464;2022-08-03T15:28:12;39.20;31.80
25102;DHT22;13087;51.472;5.464;2022-08-03T15:30:38;39.20;31.50
25102;DHT22;13087;51.472;5.464;2022-08-03T15:33:03;39.30;31.70
25102;DHT22;13087;51.472;5.464;2022-08-03T15:35:29;39.30;31.60
25102;DHT22;13087;51.472;5.464;2022-08-03T15:37:54;39.10;30.90
25102;DHT22;13087;51.472;5.464;2022-08-03T15:40:20;38.70;31.40
25102;DHT22;13087;51.472;5.464;2022-08-03T15:42:45;38.70;31.90
25102;DHT22;13087;51.472;5.464;2022-08-03T15:45:11;38.90;32.00
25102;DHT22;13087;51.472;5.464;2022-08-03T15:47:36;39.10;31.90
25102;DHT22;13087;51.472;5.464;2022-08-03T15:50:02;39.20;31.70
25102;DHT22;13087;51.472;5.464;2022-08-03T15:52:27;39.20;31.70
25102;DHT22;13087;51.472;5.464;2022-08-03T15:54:53;39.20;31.80
25102;DHT22;13087;51.472;5.464;2022-08-03T15:57:18;39.20;31.80
25102;DHT22;13087;51.472;5.464;2022-08-03T15:59:44;39.20;31.90
25102;DHT22;13087;51.472;5.464;2022-08-03T16:02:10;39.10;31.90
25102;DHT22;13087;51.472;5.464;2022-08-03T16:04:35;39.20;32.00
25102;DHT22;13087;51.472;5.464;2022-08-03T16:07:01;39.30;32.10
25102;DHT22;13087;51.472;5.464;2022-08-03T16:09:26;39.30;31.70
25102;DHT22;13087;51.472;5.464;2022-08-03T16:11:51;39.20;31.80
25102;DHT22;13087;51.472;5.464;2022-08-03T16:14:17;38.90;31.40
25102;DHT22;13087;51.472;5.464;2022-08-03T16:16:42;38.70;31.60
25102;DHT22;13087;51.472;5.464;2022-08-03T16:19:08;38.50;31.50
25102;DHT22;13087;51.472;5.464;2022-08-03T16:21:33;38.50;32.00
25102;DHT22;13087;51.472;5.464;2022-08-03T16:23:59;38.60;31.70
25102;DHT22;13087;51.472;5.464;2022-08-03T16:26:26;38.50;32.00
25102;DHT22;13087;51.472;5.464;2022-08-03T16:28:51;38.50;32.00
25102;DHT22;13087;51.472;5.464;2022-08-03T16:31:17;38.60;31.90
25102;DHT22;13087;51.472;5.464;2022-08-03T16:33:42;38.70;31.80
25102;DHT22;13087;51.472;5.464;2022-08-03T16:36:08;38.80;31.60